Terminal Aerodrome Forecast
Issued by NWS

Home | Current Version | Previous Version | Text Only | Print | Product List | Glossary On
Versions: 1 2 3 4 5 6 7 8 9 10 11 12 13 14 15 16
000
FTUS43 KIND 132300
TAFBMG
TAF
KBMG 132320Z 1400/1424 VRB02KT P6SM FEW030 SCT250
      TEMPO 1400/1401 3SM TSRA BKN025CB
     FM140900 00000KT 3SM BR BCFG SCT250
     FM141300 26005KT P6SM SCT040 BKN250
     FM141800 28009KT P6SM VCTS BKN040CB
      AMD LTD TO CLD VIS AND WIND 1401/1413=

USA.gov is the U.S. government's official web portal to all federal, state and local government web resources and services.